»·PEaware :: SNK5721 KFUL-KDAG

SNK5721 :: KFUL-KDAG

FLIGHT INFORMATION

Flight Status: Arrived
Operator: Unknown
More flights by this operator :: More flights under this callsign
Pilot: Anonymous 8799 (8799)
Aircraft: Unknown
(DA62)
More flights by this aircraft type
Origin: KFUL Fullerton Mun
United States
Destination: KDAG Barstow-Daggett
United States
More flights between these airports :: More routes between these airports
Route: SLI V21 PDZ V442 APLES V394 DAG
File this flight plan on PilotEdge
Remarks:
Altitude:
(Current/Filed)
9,000ft
Speed:
(Current/Filed)
150kts
Departed: 11-Sep-19 05:03 PM
Arrived: 11-Sep-19 05:46 PM
Distance/Time
Traveled:
84nm/0:42
Distance/Time
To Go:
Arrived

Flight Plot

Page will automatically refresh every two minutes.

Flight plan parsing failed; only flown route is shown


Map Options




Map Legend


Flown Route
Filed Route
Departure Airport
Arrival Airport
Navaid (VOR, NDB)
Fix

Horizontal Profiles

Position Reports

Time Latitude Longitude Heading Altitude Ground
Speed
11-Sep-19 16:39 33.872827 -117.980910 262 100ft 0kts
11-Sep-19 16:40 33.872827 -117.980910 262 100ft 0kts
11-Sep-19 16:41 33.872827 -117.980910 262 100ft 0kts
11-Sep-19 16:42 33.872827 -117.980910 262 100ft 0kts
11-Sep-19 16:43 33.872827 -117.980910 262 100ft 0kts
11-Sep-19 16:44 33.872827 -117.980910 262 100ft 0kts
11-Sep-19 16:45 33.872827 -117.980910 262 100ft 0kts
11-Sep-19 16:46 33.872827 -117.980910 262 100ft 0kts
11-Sep-19 16:47 33.872827 -117.980910 262 100ft 0kts
11-Sep-19 16:48 33.872827 -117.980910 262 100ft 0kts
11-Sep-19 16:49 33.872827 -117.980910 262 100ft 0kts
11-Sep-19 16:50 33.872827 -117.980910 262 100ft 0kts
11-Sep-19 16:51 33.872827 -117.980910 262 100ft 0kts
11-Sep-19 16:52 33.872827 -117.980910 262 100ft 0kts
11-Sep-19 16:53 33.872827 -117.980910 262 100ft 0kts
11-Sep-19 16:54 33.872827 -117.980910 262 100ft 0kts
11-Sep-19 16:55 33.872827 -117.980910 262 100ft 0kts
11-Sep-19 16:56 33.872827 -117.980910 262 100ft 0kts
11-Sep-19 16:57 33.872323 -117.980488 75 100ft 8kts
11-Sep-19 16:58 33.872857 -117.977760 75 100ft 6kts
11-Sep-19 16:59 33.873244 -117.976005 102 100ft 0kts
11-Sep-19 17:00 33.873238 -117.975962 98 100ft 0kts
11-Sep-19 17:01 33.872747 -117.976087 254 100ft 29kts
11-Sep-19 17:02 33.862778 -117.995056 167 809ft 82kts
11-Sep-19 17:03 33.846034 -117.971156 128 1668ft 99kts
11-Sep-19 17:04 33.827075 -117.941923 131 2231ft 117kts
11-Sep-19 17:05 33.810404 -117.910300 76 2921ft 117kts
11-Sep-19 17:06 33.824740 -117.876159 61 3618ft 110kts
11-Sep-19 17:07 33.836981 -117.848080 61 4005ft 117kts
11-Sep-19 17:08 33.847668 -117.811203 72 4437ft 101kts
11-Sep-19 17:09 33.855130 -117.781714 71 5163ft 95kts
11-Sep-19 17:10 33.863093 -117.750268 71 5676ft 100kts
11-Sep-19 17:11 33.870742 -117.719944 71 6422ft 89kts
11-Sep-19 17:12 33.877623 -117.692717 71 7195ft 81kts
11-Sep-19 17:13 33.883983 -117.667438 71 7897ft 79kts
11-Sep-19 17:14 33.890707 -117.640766 72 8418ft 86kts
11-Sep-19 17:15 33.894810 -117.624422 72 8713ft 89kts
11-Sep-19 17:16 33.900777 -117.600652 72 9009ft 102kts
11-Sep-19 17:17 33.910011 -117.563783 71 8949ft 129kts
11-Sep-19 17:18 33.931256 -117.525060 31 9008ft 158kts
11-Sep-19 17:19 33.971560 -117.498723 27 9000ft 167kts
11-Sep-19 17:20 34.013739 -117.473116 26 8998ft 170kts
11-Sep-19 17:21 34.056308 -117.447497 26 8998ft 170kts
11-Sep-19 17:22 34.099198 -117.421700 26 9004ft 170kts
11-Sep-19 17:23 34.141846 -117.396030 26 9014ft 171kts
11-Sep-19 17:24 34.184711 -117.370189 26 9027ft 171kts
11-Sep-19 17:25 34.227393 -117.344428 26 9041ft 172kts
11-Sep-19 17:26 34.270598 -117.318312 26 9045ft 173kts
11-Sep-19 17:27 34.314008 -117.292073 26 9045ft 174kts
11-Sep-19 17:28 34.357395 -117.265802 26 9045ft 174kts
11-Sep-19 17:29 34.400716 -117.239542 26 9045ft 174kts
11-Sep-19 17:30 34.443918 -117.213319 26 9045ft 174kts
11-Sep-19 17:31 34.487230 -117.187002 26 9045ft 174kts
11-Sep-19 17:32 34.530674 -117.160458 26 9044ft 174kts
11-Sep-19 17:33 34.567729 -117.123263 47 9044ft 174kts
11-Sep-19 17:34 34.599986 -117.079081 47 9045ft 174kts
11-Sep-19 17:35 34.632177 -117.034900 47 9044ft 174kts
11-Sep-19 17:36 34.664393 -116.990639 47 9045ft 175kts
11-Sep-19 17:37 34.696985 -116.945826 47 8854ft 185kts
11-Sep-19 17:38 34.734845 -116.898208 34 7888ft 201kts
11-Sep-19 17:39 34.779856 -116.857224 38 6878ft 202kts
11-Sep-19 17:40 34.821276 -116.810912 46 5861ft 201kts
11-Sep-19 17:41 34.804781 -116.767387 195 4684ft 209kts
11-Sep-19 17:42 34.792550 -116.823648 276 4369ft 172kts
11-Sep-19 17:43 34.821740 -116.841539 47 3708ft 169kts
11-Sep-19 17:44 34.843031 -116.805746 50 2315ft 98kts
11-Sep-19 17:45 34.856736 -116.785795 53 1929ft 24kts
11-Sep-19 17:46 34.857560 -116.787078 324 1929ft 6kts
11-Sep-19 17:47 34.857630 -116.787125 328 1929ft 0kts
11-Sep-19 17:48 34.857630 -116.787125 328 1929ft 0kts
11-Sep-19 17:49 34.857630 -116.787125 328 1929ft 0kts
11-Sep-19 17:50 34.857630 -116.787125 328 1929ft 0kts
11-Sep-19 17:51 34.857630 -116.787125 328 1929ft 0kts
11-Sep-19 17:52 34.857630 -116.787125 328 1929ft 0kts

Navigation Log

Ident Type
Flight plan parsing failed, navigation log unavailable